You are not logged in, Click here to log in
機場資訊:RCMQ Welcome to Taiwan Airways 台灣虛擬航空
ICAO: RCMQ Country: 臺灣臺中市
Latitude: 24.255 Longitude: 120.601
Total Arrivals: 63 Total Departures: 60
Latest Arrival: FS31 (VVDN-RCMQ)CHU. CHUHAO Latest Departure: AE15419 (RCMQ-RCTP)Stone. Chang
Scenery:
METAR : RCMQ 211230Z 01008KT 9999 FEW012 20/16 Q1013 NOSIG RMK A2993

臺中清泉崗機場RMQ